Time;durP1;ratioP1;P1;durP2;ratioP2;P2;SDS_P1;SDS_P2;PMS_P1;PMS_P2;Temp;Humidity;BMP_temperature;BMP_pressure;BME280_temperature;BME280_humidity;BME280_pressure;Samples;Min_cycle;Max_cycle;Signal;HPM_P1;HPM_P2
2024/02/08 00:01:22;;;;;;;;;;;;;;;;;;5074080;28;19908;-70
2024/02/08 00:03:50;;;;;;;;;;;;;;;;;;5073942;28;19908;-71
2024/02/08 00:06:15;;;;;;;;;;;;;;;;;;5073508;28;19914;-70
2024/02/08 00:08:41;;;;;;;;;;;;;;;;;;5073844;28;19908;-70
2024/02/08 00:11:07;;;;;;;;;;;;;;;;;;5073413;28;19908;-70
2024/02/08 00:13:34;;;;;;;;;;;;;;;;;;5073551;28;20015;-71
2024/02/08 00:16:00;;;;;;;;;;;;;;;;;;5074111;28;19908;-71
2024/02/08 00:18:26;;;;;;;;;;;;;;;;;;5073353;28;19912;-70
2024/02/08 00:20:52;;;;;;;;;;;;;;;;;;5055820;28;19951;-70
2024/02/08 00:23:18;;;;;;;;;;;;;;;;;;5073734;28;19986;-70
2024/02/08 00:25:45;;;;;;;;;;;;;;;;;;5055094;28;20369;-70
2024/02/08 00:28:13;;;;;;;;;;;;;;;;;;5073775;28;19909;-70
2024/02/08 00:30:40;;;;;;;;;;;;;;;;;;5073831;28;19912;-71
2024/02/08 00:33:06;;;;;;;;;;;;;;;;;;5073161;28;20003;-71
2024/02/08 00:35:33;;;;;;;;;;;;;;;;;;5055694;28;20414;-70
2024/02/08 00:37:59;;;;;;;;;;;;;;;;;;5073564;28;19909;-70
2024/02/08 00:40:25;;;;;;;;;;;;;;;;;;5073217;28;19963;-70
2024/02/08 00:42:51;;;;;;;;;;;;;;;;;;5073493;28;19908;-70
2024/02/08 00:45:22;;;;;;;;;;;;;;;;;;5073477;28;19908;-70
2024/02/08 00:47:50;;;;;;;;;;;;;;;;;;5073348;28;19977;-71
2024/02/08 00:50:16;;;;;;;;;;;;;;;;;;5055526;28;19908;-70
2024/02/08 00:52:42;;;;;;;;;;;;;;;;;;5073332;28;19916;-70
2024/02/08 00:55:08;;;;;;;;;;;;;;;;;;5073029;28;20387;-70
2024/02/08 00:57:34;;;;;;;;;;;;;;;;;;5073571;28;20357;-70
2024/02/08 01:00:00;;;;;;;;;;;;;;;;;;5073414;28;20355;-70
2024/02/08 01:02:26;;;;;;;;;;;;;;;;;;5072937;28;20272;-70
2024/02/08 01:04:52;;;;;;;;;;;;;;;;;;5073238;28;19916;-70
2024/02/08 01:07:18;;;;;;;;;;;;;;;;;;5073282;28;19908;-70
2024/02/08 01:09:44;;;;;;;;;;;;;;;;;;5072906;28;19915;-70
2024/02/08 01:12:10;;;;;;;;;;;;;;;;;;5073092;28;19952;-70
2024/02/08 01:14:37;;;;;;;;;;;;;;;;;;5072826;28;19923;-70
2024/02/08 01:17:04;;;;;;;;;;;;;;;;;;5073271;28;20372;-70
2024/02/08 01:19:31;;;;;;;;;;;;;;;;;;5073290;28;19908;-70
2024/02/08 01:21:57;;;;;;;;;;;;;;;;;;5072737;28;19934;-70
2024/02/08 01:24:23;;;;;;;;;;;;;;;;;;5073331;28;19934;-70
2024/02/08 01:26:48;;;;;;;;;;;;;;;;;;5073437;28;19909;-70
2024/02/08 01:29:14;;;;;;;;;;;;;;;;;;5072678;28;19916;-71
2024/02/08 01:31:40;;;;;;;;;;;;;;;;;;5073030;28;19940;-71
2024/02/08 01:34:07;;;;;;;;;;;;;;;;;;5072943;28;20351;-70
2024/02/08 01:36:33;;;;;;;;;;;;;;;;;;5055030;28;19962;-70
2024/02/08 01:38:59;;;;;;;;;;;;;;;;;;5058540;28;20315;-70
2024/02/08 01:41:25;;;;;;;;;;;;;;;;;;5076442;28;19915;-70
2024/02/08 01:43:51;;;;;;;;;;;;;;;;;;5076080;28;20352;-70
2024/02/08 01:46:17;;;;;;;;;;;;;;;;;;5076449;28;19936;-70
2024/02/08 01:48:44;;;;;;;;;;;;;;;;;;5076387;28;20378;-70
2024/02/08 01:51:12;;;;;;;;;;;;;;;;;;5076210;28;19915;-70
2024/02/08 01:53:39;;;;;;;;;;;;;;;;;;5076246;28;20004;-70
2024/02/08 01:56:05;;;;;;;;;;;;;;;;;;5076294;28;20406;-70
2024/02/08 01:58:31;;;;;;;;;;;;;;;;;;5075854;28;20390;-70
2024/02/08 02:00:57;;;;;;;;;;;;;;;;;;5076153;28;19948;-70
2024/02/08 02:03:26;;;;;;;;;;;;;;;;;;5076657;28;19909;-70
2024/02/08 02:05:52;;;;;;;;;;;;;;;;;;5075765;28;19920;-70
2024/02/08 02:08:18;;;;;;;;;;;;;;;;;;5058099;28;19991;-70
2024/02/08 02:10:44;;;;;;;;;;;;;;;;;;5075845;28;20426;-70
2024/02/08 02:13:10;;;;;;;;;;;;;;;;;;5057616;28;19956;-70
2024/02/08 02:15:37;;;;;;;;;;;;;;;;;;5075873;28;19962;-70
2024/02/08 02:18:03;;;;;;;;;;;;;;;;;;5057502;28;19912;-70
2024/02/08 02:20:32;;;;;;;;;;;;;;;;;;5075853;28;19908;-70
2024/02/08 02:22:58;;;;;;;;;;;;;;;;;;5075753;28;19909;-70
2024/02/08 02:25:25;;;;;;;;;;;;;;;;;;5057400;28;19916;-71
2024/02/08 02:27:53;;;;;;;;;;;;;;;;;;5075738;28;20292;-70
2024/02/08 02:30:19;;;;;;;;;;;;;;;;;;5057738;28;19953;-70
2024/02/08 02:32:49;;;;;;;;;;;;;;;;;;5075067;28;20012;-70
2024/02/08 02:35:17;;;;;;;;;;;;;;;;;;5075493;28;19909;-70
2024/02/08 02:37:44;;;;;;;;;;;;;;;;;;5075459;28;19908;-70
2024/02/08 02:40:10;;;;;;;;;;;;;;;;;;5075109;28;19915;-70
2024/02/08 02:42:36;;;;;;;;;;;;;;;;;;5057360;28;19995;-70
2024/02/08 02:45:02;;;;;;;;;;;;;;;;;;5075403;28;19916;-70
2024/02/08 02:47:28;;;;;;;;;;;;;;;;;;5074832;28;19912;-70
2024/02/08 02:49:55;;;;;;;;;;;;;;;;;;5075302;28;19912;-70
2024/02/08 02:52:21;;;;;;;;;;;;;;;;;;5075187;28;20428;-70
2024/02/08 02:54:48;;;;;;;;;;;;;;;;;;5074744;28;20368;-70
2024/02/08 02:57:14;;;;;;;;;;;;;;;;;;5075073;28;19919;-70
2024/02/08 02:59:42;;;;;;;;;;;;;;;;;;5075001;28;20369;-70
2024/02/08 03:02:08;;;;;;;;;;;;;;;;;;5074562;28;19915;-70
2024/02/08 03:04:35;;;;;;;;;;;;;;;;;;5057329;28;20258;-70
2024/02/08 03:07:01;;;;;;;;;;;;;;;;;;5074612;28;19955;-70
2024/02/08 03:09:31;;;;;;;;;;;;;;;;;;5056998;28;20341;-71
2024/02/08 03:11:57;;;;;;;;;;;;;;;;;;5074633;28;19966;-70
2024/02/08 03:14:24;;;;;;;;;;;;;;;;;;5056437;28;19920;-70
2024/02/08 03:16:50;;;;;;;;;;;;;;;;;;5074696;28;20400;-70
2024/02/08 03:19:16;;;;;;;;;;;;;;;;;;5074978;28;19954;-70
2024/02/08 03:21:45;;;;;;;;;;;;;;;;;;5074141;28;20280;-70
2024/02/08 03:24:11;;;;;;;;;;;;;;;;;;5074600;28;19918;-70
2024/02/08 03:26:40;;;;;;;;;;;;;;;;;;5074482;28;20432;-70
2024/02/08 03:29:06;;;;;;;;;;;;;;;;;;5056126;28;19940;-70
2024/02/08 03:31:32;;;;;;;;;;;;;;;;;;5074408;28;19909;-69
2024/02/08 03:33:59;;;;;;;;;;;;;;;;;;5056403;28;19918;-72
2024/02/08 03:36:27;;;;;;;;;;;;;;;;;;5074130;28;19944;-72
2024/02/08 03:38:53;;;;;;;;;;;;;;;;;;5074286;28;19919;-72
2024/02/08 03:41:19;;;;;;;;;;;;;;;;;;5074196;28;19909;-69
2024/02/08 03:43:47;;;;;;;;;;;;;;;;;;5073899;28;19916;-69
2024/02/08 03:46:14;;;;;;;;;;;;;;;;;;5056239;28;20394;-70
2024/02/08 03:48:45;;;;;;;;;;;;;;;;;;5074077;28;19909;-69
2024/02/08 03:51:11;;;;;;;;;;;;;;;;;;5073797;28;19908;-71
2024/02/08 03:53:37;;;;;;;;;;;;;;;;;;5073966;28;20330;-71
2024/02/08 03:56:06;;;;;;;;;;;;;;;;;;5074027;28;19919;-70
2024/02/08 03:58:31;;;;;;;;;;;;;;;;;;5073667;28;19913;-71
2024/02/08 04:01:00;;;;;;;;;;;;;;;;;;5073450;28;19993;-71
2024/02/08 04:03:53;;;;;;;;;;;;;;;;;;5073900;28;20249;-71
2024/02/08 04:07:20;;;;;;;;;;;;;;;;;;5074572;28;20009;-71
2024/02/08 04:09:33;;;;;;;;;;;;;;;;;;5060436;28;19912;-71
2024/02/08 04:55:58;;;;;;;;;;;;;;;;;;5073505;28;19961;-71
2024/02/08 04:58:26;;;;;;;;;;;;;;;;;;5073325;28;19912;-71
2024/02/08 05:00:52;;;;;;;;;;;;;;;;;;5072951;28;20365;-71
2024/02/08 05:03:19;;;;;;;;;;;;;;;;;;5073334;28;19974;-71
2024/02/08 05:05:46;;;;;;;;;;;;;;;;;;5073415;28;19909;-71
2024/02/08 05:08:12;;;;;;;;;;;;;;;;;;5073057;28;19995;-70
2024/02/08 05:10:38;;;;;;;;;;;;;;;;;;5055320;28;19916;-71
2024/02/08 05:13:04;;;;;;;;;;;;;;;;;;5075777;28;19920;-71
2024/02/08 05:15:30;;;;;;;;;;;;;;;;;;5076782;28;20319;-71
2024/02/08 05:17:56;;;;;;;;;;;;;;;;;;5077011;28;19908;-71
2024/02/08 05:20:22;;;;;;;;;;;;;;;;;;5077123;28;20391;-70
2024/02/08 05:22:48;;;;;;;;;;;;;;;;;;5076524;28;20273;-71
2024/02/08 05:25:15;;;;;;;;;;;;;;;;;;5076879;28;20289;-71
2024/02/08 05:27:41;;;;;;;;;;;;;;;;;;5076477;28;19999;-71
2024/02/08 05:30:07;;;;;;;;;;;;;;;;;;5058565;28;20382;-71
2024/02/08 05:32:35;;;;;;;;;;;;;;;;;;5076895;28;19915;-71
2024/02/08 05:35:02;;;;;;;;;;;;;;;;;;5076222;28;19959;-71
2024/02/08 05:37:29;;;;;;;;;;;;;;;;;;5076625;28;20262;-71
2024/02/08 05:39:55;;;;;;;;;;;;;;;;;;5076613;28;19991;-70
2024/02/08 05:42:24;;;;;;;;;;;;;;;;;;5074590;28;19913;-71
2024/02/08 05:44:50;;;;;;;;;;;;;;;;;;5058411;28;19954;-71
2024/02/08 05:47:25;;;;;;;;;;;;;;;;;;5076487;28;19908;-70
2024/02/08 05:49:52;;;;;;;;;;;;;;;;;;5058443;28;19916;-71
2024/02/08 05:52:18;;;;;;;;;;;;;;;;;;5076394;28;19954;-70
2024/02/08 05:54:45;;;;;;;;;;;;;;;;;;5076252;28;19920;-70
2024/02/08 05:57:12;;;;;;;;;;;;;;;;;;5075988;28;20344;-70
2024/02/08 05:59:38;;;;;;;;;;;;;;;;;;5076273;28;19956;-71
2024/02/08 06:02:13;;;;;;;;;;;;;;;;;;5076478;28;19913;-70
2024/02/08 06:04:41;;;;;;;;;;;;;;;;;;5057878;28;19912;-71
2024/02/08 06:07:07;;;;;;;;;;;;;;;;;;5076125;28;20003;-72
2024/02/08 06:09:47;;;;;;;;;;;;;;;;;;5076372;28;20007;-70
2024/02/08 06:12:20;;;;;;;;;;;;;;;;;;5075538;28;19925;-71
2024/02/08 06:14:47;;;;;;;;;;;;;;;;;;5075672;28;19970;-70
2024/02/08 06:17:12;;;;;;;;;;;;;;;;;;5057594;28;19908;-71
2024/02/08 06:19:50;;;;;;;;;;;;;;;;;;5075945;28;19960;-71
2024/02/08 06:22:20;;;;;;;;;;;;;;;;;;5075037;28;19954;-71
2024/02/08 06:24:46;;;;;;;;;;;;;;;;;;5075175;28;20034;-70
2024/02/08 06:27:15;;;;;;;;;;;;;;;;;;5049444;28;19977;-71
2024/02/08 06:29:49;;;;;;;;;;;;;;;;;;5074775;28;19909;-71
2024/02/08 06:35:06;;;;;;;;;;;;;;;;;;5069191;28;19991;-71
2024/02/08 06:37:32;;;;;;;;;;;;;;;;;;5052926;28;19913;-68
2024/02/08 06:39:58;;;;;;;;;;;;;;;;;;5070490;28;20387;-67
2024/02/08 07:37:37;;;;;;;;;;;;;;;;;;5064502;28;20001;-67
2024/02/08 07:40:18;;;;;;;;;;;;;;;;;;5068322;28;20031;-71
2024/02/08 07:42:44;;;;;;;;;;;;;;;;;;5060418;28;19966;-69
2024/02/08 07:45:12;;;;;;;;;;;;;;;;;;5066498;28;19951;-68
2024/02/08 07:47:38;;;;;;;;;;;;;;;;;;5059939;28;19928;-68
2024/02/08 07:50:04;;;;;;;;;;;;;;;;;;5070389;28;19920;-69
2024/02/08 07:52:33;;;;;;;;;;;;;;;;;;5064539;28;20368;-69
2024/02/08 07:55:14;;;;;;;;;;;;;;;;;;5065218;28;19934;-69
2024/02/08 07:57:48;;;;;;;;;;;;;;;;;;5063200;28;19912;-69
2024/02/08 08:00:32;;;;;;;;;;;;;;;;;;5066939;28;20439;-67
2024/02/08 08:02:58;;;;;;;;;;;;;;;;;;5068291;28;20381;-68
2024/02/08 08:05:27;;;;;;;;;;;;;;;;;;5030467;28;19928;-69
2024/02/08 08:08:01;;;;;;;;;;;;;;;;;;5064466;28;19961;-69
2024/02/08 08:10:33;;;;;;;;;;;;;;;;;;5061368;28;19923;-69
2024/02/08 08:13:06;;;;;;;;;;;;;;;;;;5061145;28;19950;-69
2024/02/08 08:15:35;;;;;;;;;;;;;;;;;;5069409;28;20392;-68
2024/02/08 08:18:02;;;;;;;;;;;;;;;;;;5060785;28;19999;-68
2024/02/08 08:23:25;;;;;;;;;;;;;;;;;;5062024;28;20344;-71
2024/02/08 08:26:00;;;;;;;;;;;;;;;;;;5059621;28;20003;-71
2024/02/08 08:31:00;;;;;;;;;;;;;;;;;;5063132;28;19917;-72
2024/02/08 08:36:29;;;;;;;;;;;;;;;;;;5067136;28;19924;-73
2024/02/08 08:39:29;;;;;;;;;;;;;;;;;;5077549;28;19916;-72
2024/02/08 08:41:49;;;;;;;;;;;;;;;;;;5067571;28;19947;-73
2024/02/08 08:44:15;;;;;;;;;;;;;;;;;;5068574;28;19913;-69
2024/02/08 08:46:41;;;;;;;;;;;;;;;;;;5067305;28;20520;-70
2024/02/08 08:49:07;;;;;;;;;;;;;;;;;;5072218;28;19912;-71
2024/02/08 08:51:33;;;;;;;;;;;;;;;;;;5070691;28;20381;-70
2024/02/08 08:54:14;;;;;;;;;;;;;;;;;;5071323;28;19970;-70
2024/02/08 08:56:40;;;;;;;;;;;;;;;;;;5069175;28;19917;-72
2024/02/08 08:59:06;;;;;;;;;;;;;;;;;;5070052;28;20007;-73
2024/02/08 09:01:36;;;;;;;;;;;;;;;;;;5070681;28;20001;-73
2024/02/08 09:06:47;;;;;;;;;;;;;;;;;;5068092;28;20387;-74
2024/02/08 09:09:38;;;;;;;;;;;;;;;;;;5070362;28;19963;-73
2024/02/08 09:12:04;;;;;;;;;;;;;;;;;;5055764;28;19916;-71
2024/02/08 09:14:32;;;;;;;;;;;;;;;;;;5072224;28;20027;-70
2024/02/08 09:16:58;;;;;;;;;;;;;;;;;;5073230;28;19938;-74
2024/02/08 09:19:27;;;;;;;;;;;;;;;;;;5072714;28;19920;-73
2024/02/08 09:21:53;;;;;;;;;;;;;;;;;;5069965;28;19924;-73
2024/02/08 09:24:22;;;;;;;;;;;;;;;;;;5058031;28;20091;-71
2024/02/08 09:26:48;;;;;;;;;;;;;;;;;;5054245;28;20364;-73
2024/02/08 09:29:14;;;;;;;;;;;;;;;;;;5070952;28;19916;-73
2024/02/08 09:31:40;;;;;;;;;;;;;;;;;;5071765;28;19955;-72
2024/02/08 09:34:15;;;;;;;;;;;;;;;;;;5063991;28;20287;-72
2024/02/08 09:36:41;;;;;;;;;;;;;;;;;;5070402;28;19983;-71
2024/02/08 09:39:14;;;;;;;;;;;;;;;;;;5068726;28;19920;-71
2024/02/08 09:41:44;;;;;;;;;;;;;;;;;;5070872;28;19924;-72
2024/02/08 09:44:11;;;;;;;;;;;;;;;;;;5069879;28;20534;-71
2024/02/08 09:49:34;;;;;;;;;;;;;;;;;;5071813;28;19920;-73
2024/02/08 09:51:53;;;;;;;;;;;;;;;;;;5070356;28;20062;-71
2024/02/08 09:54:27;;;;;;;;;;;;;;;;;;5066665;28;20467;-72
2024/02/08 09:56:54;;;;;;;;;;;;;;;;;;5068761;28;19912;-73
2024/02/08 09:59:50;;;;;;;;;;;;;;;;;;5067690;28;20026;-74
2024/02/08 10:02:37;;;;;;;;;;;;;;;;;;5083495;28;19934;-72
2024/02/08 10:08:18;;;;;;;;;;;;;;;;;;5083992;27;19916;-73
2024/02/08 10:10:56;;;;;;;;;;;;;;;;;;5082212;28;19917;-72
2024/02/08 10:18:37;;;;;;;;;;;;;;;;;;5081591;27;19962;-70
2024/02/08 10:21:06;;;;;;;;;;;;;;;;;;5082127;28;19917;-70
2024/02/08 10:23:35;;;;;;;;;;;;;;;;;;5083024;28;19996;-72
2024/02/08 10:26:38;;;;;;;;;;;;;;;;;;5083548;28;19928;-72
2024/02/08 10:28:54;;;;;;;;;;;;;;;;;;5083176;28;19916;-71
2024/02/08 10:31:24;;;;;;;;;;;;;;;;;;5085076;28;19912;-70
2024/02/08 10:38:47;;;;;;;;;;;;;;;;;;5125957;27;19926;-71
2024/02/08 10:41:13;;;;;;;;;;;;;;;;;;5104079;28;19916;-71
2024/02/08 10:43:46;;;;;;;;;;;;;;;;;;5127789;28;20318;-71
2024/02/08 10:46:16;;;;;;;;;;;;;;;;;;5122007;28;20380;-71
2024/02/08 10:48:43;;;;;;;;;;;;;;;;;;5128861;28;19908;-70
2024/02/08 10:52:48;;;;;;;;;;;;;;;;;;5086340;27;19918;-71
2024/02/08 10:55:18;;;;;;;;;;;;;;;;;;5079778;28;20027;-72
2024/02/08 10:58:19;;;;;;;;;;;;;;;;;;5083142;28;19952;-71
2024/02/08 11:03:33;;;;;;;;;;;;;;;;;;5106072;27;19919;-71
2024/02/08 11:09:44;;;;;;;;;;;;;;;;;;5072499;28;19922;-69
2024/02/08 11:12:10;;;;;;;;;;;;;;;;;;5069778;28;19912;-70
2024/02/08 11:14:40;;;;;;;;;;;;;;;;;;5062771;28;19919;-72
2024/02/08 11:18:02;;;;;;;;;;;;;;;;;;5085658;27;19912;-68
2024/02/08 11:20:42;;;;;;;;;;;;;;;;;;5087142;28;20364;-69
2024/02/08 11:23:09;;;;;;;;;;;;;;;;;;5086003;28;19920;-71
2024/02/08 11:25:36;;;;;;;;;;;;;;;;;;5085308;28;19920;-69
2024/02/08 11:29:21;;;;;;;;;;;;;;;;;;5086224;27;19920;-69
2024/02/08 11:31:47;;;;;;;;;;;;;;;;;;5086533;28;19955;-71
2024/02/08 11:35:00;;;;;;;;;;;;;;;;;;5083794;27;19931;-69
2024/02/08 11:37:26;;;;;;;;;;;;;;;;;;5084132;28;19924;-70
2024/02/08 11:39:52;;;;;;;;;;;;;;;;;;5087516;28;19935;-70
2024/02/08 11:42:18;;;;;;;;;;;;;;;;;;5085970;28;19924;-69
2024/02/08 11:46:51;;;;;;;;;;;;;;;;;;5068763;28;19947;-70
2024/02/08 11:49:24;;;;;;;;;;;;;;;;;;5085999;28;19922;-71
2024/02/08 11:53:41;;;;;;;;;;;;;;;;;;5088354;27;19923;-71
2024/02/08 11:57:13;;;;;;;;;;;;;;;;;;5090640;27;19917;-72
2024/02/08 11:59:39;;;;;;;;;;;;;;;;;;5080697;28;19966;-71
2024/02/08 12:02:09;;;;;;;;;;;;;;;;;;5069585;28;19912;-69
2024/02/08 12:04:35;;;;;;;;;;;;;;;;;;5072583;28;20372;-70
2024/02/08 12:07:02;;;;;;;;;;;;;;;;;;5070123;28;20023;-71
2024/02/08 12:09:31;;;;;;;;;;;;;;;;;;5071149;28;20412;-69
2024/02/08 12:11:57;;;;;;;;;;;;;;;;;;5076818;28;19963;-71
2024/02/08 12:14:24;;;;;;;;;;;;;;;;;;5071223;28;19920;-72
2024/02/08 12:17:02;;;;;;;;;;;;;;;;;;5087437;27;20399;-69
2024/02/08 12:19:28;;;;;;;;;;;;;;;;;;5090871;28;19966;-69
2024/02/08 12:23:42;;;;;;;;;;;;;;;;;;5115517;27;19920;-70
2024/02/08 12:26:08;;;;;;;;;;;;;;;;;;5127491;27;19920;-72
2024/02/08 12:28:34;;;;;;;;;;;;;;;;;;5129672;28;19915;-69
2024/02/08 12:31:00;;;;;;;;;;;;;;;;;;5124701;28;20014;-68
2024/02/08 12:33:26;;;;;;;;;;;;;;;;;;5120723;28;20006;-70
2024/02/08 12:35:52;;;;;;;;;;;;;;;;;;5112810;27;19915;-70
2024/02/08 12:38:19;;;;;;;;;;;;;;;;;;5113946;28;19908;-70
2024/02/08 12:40:47;;;;;;;;;;;;;;;;;;5124260;27;19955;-72
2024/02/08 12:43:15;;;;;;;;;;;;;;;;;;5106894;28;19920;-71
2024/02/08 12:45:41;;;;;;;;;;;;;;;;;;5099679;28;20362;-70
2024/02/08 12:48:08;;;;;;;;;;;;;;;;;;5115627;28;19937;-71
2024/02/08 12:50:35;;;;;;;;;;;;;;;;;;5119256;27;19912;-71
2024/02/08 12:53:01;;;;;;;;;;;;;;;;;;5126923;27;20439;-71
2024/02/08 12:55:30;;;;;;;;;;;;;;;;;;5121430;27;19930;-71
2024/02/08 12:57:57;;;;;;;;;;;;;;;;;;5118144;28;19907;-71
2024/02/08 13:00:23;;;;;;;;;;;;;;;;;;5117725;27;19957;-68
2024/02/08 13:02:54;;;;;;;;;;;;;;;;;;5118299;28;19923;-70
2024/02/08 13:05:22;;;;;;;;;;;;;;;;;;5108002;27;20379;-69
2024/02/08 13:07:51;;;;;;;;;;;;;;;;;;5109478;28;19999;-70
2024/02/08 13:10:17;;;;;;;;;;;;;;;;;;5117361;28;20556;-70
2024/02/08 13:12:43;;;;;;;;;;;;;;;;;;5122036;27;19912;-69
2024/02/08 13:15:10;;;;;;;;;;;;;;;;;;5116871;27;20407;-73
2024/02/08 13:17:37;;;;;;;;;;;;;;;;;;5123254;27;20375;-74
2024/02/08 13:20:12;;;;;;;;;;;;;;;;;;5105051;28;19908;-73
2024/02/08 13:22:38;;;;;;;;;;;;;;;;;;5108069;28;19965;-74
2024/02/08 13:25:11;;;;;;;;;;;;;;;;;;5108660;28;19908;-74
2024/02/08 13:27:38;;;;;;;;;;;;;;;;;;5109431;28;20271;-74
2024/02/08 13:30:14;;;;;;;;;;;;;;;;;;5109738;28;20388;-74
2024/02/08 13:32:40;;;;;;;;;;;;;;;;;;5109683;28;19908;-74
2024/02/08 13:35:07;;;;;;;;;;;;;;;;;;5095416;28;19954;-73
2024/02/08 13:37:35;;;;;;;;;;;;;;;;;;5096946;28;20337;-74
2024/02/08 13:40:03;;;;;;;;;;;;;;;;;;5099560;28;19965;-68
2024/02/08 13:42:29;;;;;;;;;;;;;;;;;;5097356;28;19924;-69
2024/02/08 13:44:57;;;;;;;;;;;;;;;;;;5095529;28;19916;-68
2024/02/08 13:47:25;;;;;;;;;;;;;;;;;;5093663;28;19938;-68
2024/02/08 13:49:53;;;;;;;;;;;;;;;;;;5093799;28;19916;-69
2024/02/08 13:52:19;;;;;;;;;;;;;;;;;;5104064;28;19912;-69
2024/02/08 13:54:48;;;;;;;;;;;;;;;;;;5113024;28;20449;-69
2024/02/08 13:57:14;;;;;;;;;;;;;;;;;;5094627;28;19919;-69
2024/02/08 13:59:45;;;;;;;;;;;;;;;;;;5097089;28;19923;-69
2024/02/08 14:02:13;;;;;;;;;;;;;;;;;;5106294;28;19920;-70
2024/02/08 14:04:39;;;;;;;;;;;;;;;;;;5115308;28;20284;-69
2024/02/08 14:07:11;;;;;;;;;;;;;;;;;;5115577;28;19908;-69
2024/02/08 14:09:40;;;;;;;;;;;;;;;;;;5108576;28;19908;-69
2024/02/08 14:12:08;;;;;;;;;;;;;;;;;;5095028;28;19965;-70
2024/02/08 14:14:41;;;;;;;;;;;;;;;;;;5094766;28;19908;-69
2024/02/08 14:17:20;;;;;;;;;;;;;;;;;;5110199;28;19912;-74
2024/02/08 14:20:52;;;;;;;;;;;;;;;;;;5082862;27;19920;-75
2024/02/08 14:23:29;;;;;;;;;;;;;;;;;;5089932;28;20406;-77
2024/02/08 14:28:33;;;;;;;;;;;;;;;;;;5091594;28;19915;-76
2024/02/08 14:31:02;;;;;;;;;;;;;;;;;;5090974;28;19908;-76
2024/02/08 14:33:28;;;;;;;;;;;;;;;;;;5091244;28;19915;-76
2024/02/08 14:35:54;;;;;;;;;;;;;;;;;;5091687;28;20388;-77
2024/02/08 14:38:20;;;;;;;;;;;;;;;;;;5090867;28;19919;-74
2024/02/08 14:40:47;;;;;;;;;;;;;;;;;;5091409;28;19908;-76
2024/02/08 14:43:25;;;;;;;;;;;;;;;;;;5091618;28;19954;-75
2024/02/08 14:45:53;;;;;;;;;;;;;;;;;;5091211;28;20011;-76
2024/02/08 14:48:22;;;;;;;;;;;;;;;;;;5090928;28;20348;-76
2024/02/08 14:50:55;;;;;;;;;;;;;;;;;;5089677;28;20284;-76
2024/02/08 14:53:22;;;;;;;;;;;;;;;;;;5091521;28;19909;-74
2024/02/08 14:55:51;;;;;;;;;;;;;;;;;;5090617;28;20280;-75
2024/02/08 14:58:33;;;;;;;;;;;;;;;;;;5090292;28;19908;-75
2024/02/08 15:01:07;;;;;;;;;;;;;;;;;;5090676;28;19908;-75
2024/02/08 15:04:52;;;;;;;;;;;;;;;;;;5091405;27;19917;-75
2024/02/08 15:10:09;;;;;;;;;;;;;;;;;;5091487;28;20414;-76
2024/02/08 15:12:41;;;;;;;;;;;;;;;;;;5090945;28;19908;-75
2024/02/08 15:15:18;;;;;;;;;;;;;;;;;;5091487;28;20275;-75
2024/02/08 15:17:45;;;;;;;;;;;;;;;;;;5091713;28;19955;-74
2024/02/08 15:23:09;;;;;;;;;;;;;;;;;;5091030;28;19923;-75
2024/02/08 15:25:43;;;;;;;;;;;;;;;;;;5090735;28;20365;-75
2024/02/08 15:28:55;;;;;;;;;;;;;;;;;;5091477;27;19916;-74
2024/02/08 15:31:45;;;;;;;;;;;;;;;;;;5091219;28;20327;-74
2024/02/08 15:40:18;;;;;;;;;;;;;;;;;;5091418;27;20292;-75
2024/02/08 15:42:44;;;;;;;;;;;;;;;;;;5092481;28;19991;-75
2024/02/08 15:45:13;;;;;;;;;;;;;;;;;;5092294;28;19950;-75
2024/02/08 15:47:54;;;;;;;;;;;;;;;;;;5091051;28;19931;-77
2024/02/08 15:53:17;;;;;;;;;;;;;;;;;;5091945;27;19917;-76
2024/02/08 16:01:19;;;;;;;;;;;;;;;;;;5091196;27;19916;-75
2024/02/08 16:04:00;;;;;;;;;;;;;;;;;;5091928;28;19981;-77
2024/02/08 16:07:32;;;;;;;;;;;;;;;;;;5091489;28;20363;-76
2024/02/08 16:09:58;;;;;;;;;;;;;;;;;;5091096;28;19966;-76
2024/02/08 16:12:36;;;;;;;;;;;;;;;;;;5091486;28;19912;-76
2024/02/08 16:15:07;;;;;;;;;;;;;;;;;;5089590;28;19916;-76
2024/02/08 16:21:32;;;;;;;;;;;;;;;;;;5091399;28;19919;-73
2024/02/08 16:23:58;;;;;;;;;;;;;;;;;;5090884;28;20372;-76
2024/02/08 16:28:16;;;;;;;;;;;;;;;;;;5091734;27;19917;-76
2024/02/08 16:30:59;;;;;;;;;;;;;;;;;;5090986;28;19935;-76
2024/02/08 16:38:57;;;;;;;;;;;;;;;;;;5091220;28;19916;-77
2024/02/08 16:41:23;;;;;;;;;;;;;;;;;;5091200;28;19909;-76
2024/02/08 16:43:56;;;;;;;;;;;;;;;;;;5090719;28;19908;-77
2024/02/08 16:46:23;;;;;;;;;;;;;;;;;;5091056;28;19916;-76
2024/02/08 16:48:54;;;;;;;;;;;;;;;;;;5090971;28;19908;-75
2024/02/08 16:51:26;;;;;;;;;;;;;;;;;;5090680;28;19994;-76
2024/02/08 16:54:01;;;;;;;;;;;;;;;;;;5091203;28;19948;-77
2024/02/08 16:56:32;;;;;;;;;;;;;;;;;;5090909;28;19931;-77
2024/02/08 16:59:00;;;;;;;;;;;;;;;;;;5090703;28;19930;-77
2024/02/08 17:01:29;;;;;;;;;;;;;;;;;;5091059;28;19912;-77
2024/02/08 17:04:15;;;;;;;;;;;;;;;;;;5090742;28;20268;-76
2024/02/08 17:06:54;;;;;;;;;;;;;;;;;;5089454;28;19920;-77
2024/02/08 17:09:34;;;;;;;;;;;;;;;;;;5091389;28;19908;-77
2024/02/08 17:12:04;;;;;;;;;;;;;;;;;;5090434;28;19908;-77
2024/02/08 17:14:35;;;;;;;;;;;;;;;;;;5090627;28;19978;-78
2024/02/08 17:17:13;;;;;;;;;;;;;;;;;;5090794;28;19954;-75
2024/02/08 17:19:56;;;;;;;;;;;;;;;;;;5090359;28;19915;-77
2024/02/08 17:25:41;;;;;;;;;;;;;;;;;;5090144;28;19916;-77
2024/02/08 17:30:16;;;;;;;;;;;;;;;;;;5111103;28;19908;-76
2024/02/08 17:32:45;;;;;;;;;;;;;;;;;;5111317;28;19908;-75
2024/02/08 17:35:15;;;;;;;;;;;;;;;;;;5092450;28;20378;-75
2024/02/08 17:37:48;;;;;;;;;;;;;;;;;;5107540;28;20319;-76
2024/02/08 17:40:18;;;;;;;;;;;;;;;;;;5097231;28;19908;-75
2024/02/08 17:42:44;;;;;;;;;;;;;;;;;;5079682;28;19916;-76
2024/02/08 17:45:12;;;;;;;;;;;;;;;;;;5097070;28;20365;-76
2024/02/08 17:47:41;;;;;;;;;;;;;;;;;;5096534;28;19955;-76
2024/02/08 17:50:06;;;;;;;;;;;;;;;;;;5096798;28;19912;-75
2024/02/08 17:52:37;;;;;;;;;;;;;;;;;;5096567;28;19914;-75
2024/02/08 17:55:03;;;;;;;;;;;;;;;;;;5096155;28;20335;-75
2024/02/08 17:57:29;;;;;;;;;;;;;;;;;;5097109;28;19908;-76
2024/02/08 17:59:58;;;;;;;;;;;;;;;;;;5078375;28;20357;-75
2024/02/08 18:02:24;;;;;;;;;;;;;;;;;;5096032;28;19909;-75
2024/02/08 18:04:50;;;;;;;;;;;;;;;;;;5096305;28;19923;-75
2024/02/08 18:07:19;;;;;;;;;;;;;;;;;;5077659;28;19927;-76
2024/02/08 18:09:54;;;;;;;;;;;;;;;;;;5096919;28;19915;-75
2024/02/08 18:12:23;;;;;;;;;;;;;;;;;;5096749;28;19916;-76
2024/02/08 18:14:49;;;;;;;;;;;;;;;;;;5096232;28;19940;-75
2024/02/08 18:17:18;;;;;;;;;;;;;;;;;;5096003;28;19977;-76
2024/02/08 18:19:46;;;;;;;;;;;;;;;;;;5096131;28;19908;-76
2024/02/08 18:22:13;;;;;;;;;;;;;;;;;;5095162;28;19962;-75
2024/02/08 18:24:41;;;;;;;;;;;;;;;;;;5095931;28;19908;-75
2024/02/08 18:27:07;;;;;;;;;;;;;;;;;;5095440;28;19927;-75
2024/02/08 18:29:35;;;;;;;;;;;;;;;;;;5077354;28;19909;-75
2024/02/08 18:32:01;;;;;;;;;;;;;;;;;;5095803;28;19908;-76
2024/02/08 18:34:27;;;;;;;;;;;;;;;;;;5095657;28;20314;-75
2024/02/08 18:36:56;;;;;;;;;;;;;;;;;;5095342;28;19913;-75
2024/02/08 18:39:28;;;;;;;;;;;;;;;;;;5095548;28;19908;-76
2024/02/08 18:41:57;;;;;;;;;;;;;;;;;;5095731;28;19912;-77
2024/02/08 18:44:23;;;;;;;;;;;;;;;;;;5095279;28;19969;-74
2024/02/08 18:46:49;;;;;;;;;;;;;;;;;;5096214;28;20368;-75
2024/02/08 18:49:18;;;;;;;;;;;;;;;;;;5095107;28;20276;-75
2024/02/08 18:51:48;;;;;;;;;;;;;;;;;;5094981;28;19947;-75
2024/02/08 18:54:20;;;;;;;;;;;;;;;;;;5095516;28;19912;-75
2024/02/08 18:56:46;;;;;;;;;;;;;;;;;;5095549;28;20679;-75
2024/02/08 18:59:12;;;;;;;;;;;;;;;;;;5095619;28;19954;-75
2024/02/08 19:01:39;;;;;;;;;;;;;;;;;;5095367;28;19912;-75
2024/02/08 19:04:09;;;;;;;;;;;;;;;;;;5094868;28;19915;-75
2024/02/08 19:06:39;;;;;;;;;;;;;;;;;;5095088;28;19917;-75
2024/02/08 19:09:07;;;;;;;;;;;;;;;;;;5095318;28;20364;-74
2024/02/08 19:11:34;;;;;;;;;;;;;;;;;;5094893;28;19931;-75
2024/02/08 19:14:02;;;;;;;;;;;;;;;;;;5095125;28;19912;-75
2024/02/08 19:16:29;;;;;;;;;;;;;;;;;;5076925;28;19956;-76
2024/02/08 19:19:00;;;;;;;;;;;;;;;;;;5094602;28;19915;-75
2024/02/08 19:21:26;;;;;;;;;;;;;;;;;;5094996;28;19912;-75
2024/02/08 19:23:55;;;;;;;;;;;;;;;;;;5094925;28;19954;-76
2024/02/08 19:26:21;;;;;;;;;;;;;;;;;;5094218;28;20395;-75
2024/02/08 19:28:47;;;;;;;;;;;;;;;;;;5094856;28;19908;-76
2024/02/08 19:31:14;;;;;;;;;;;;;;;;;;5095532;28;19909;-74
2024/02/08 19:33:41;;;;;;;;;;;;;;;;;;5094797;28;20268;-75
2024/02/08 19:36:09;;;;;;;;;;;;;;;;;;5095778;28;19912;-76
2024/02/08 19:38:35;;;;;;;;;;;;;;;;;;5095201;28;19961;-76
2024/02/08 19:41:01;;;;;;;;;;;;;;;;;;5094403;28;20287;-76
2024/02/08 19:43:34;;;;;;;;;;;;;;;;;;5094491;28;19908;-76
2024/02/08 19:46:02;;;;;;;;;;;;;;;;;;5094224;28;19915;-77
2024/02/08 19:48:31;;;;;;;;;;;;;;;;;;5094613;28;20280;-76
2024/02/08 19:51:01;;;;;;;;;;;;;;;;;;5094633;28;19955;-76
2024/02/08 19:53:29;;;;;;;;;;;;;;;;;;5094200;28;19908;-76
2024/02/08 19:55:55;;;;;;;;;;;;;;;;;;5076069;28;20008;-76
2024/02/08 19:58:22;;;;;;;;;;;;;;;;;;5094521;28;19952;-75
2024/02/08 20:00:51;;;;;;;;;;;;;;;;;;5093934;28;19908;-75
2024/02/08 20:03:26;;;;;;;;;;;;;;;;;;5094222;28;19910;-76
2024/02/08 20:05:52;;;;;;;;;;;;;;;;;;5094179;28;19912;-76
2024/02/08 20:08:18;;;;;;;;;;;;;;;;;;5094176;28;19919;-76